sensor_id;sensor_type;location;lat;lon;timestamp;temperature;humidity
39675;DHT22;27790;50.840;4.386;2023-09-19T00:00:38;17.30;99.90
39675;DHT22;27790;50.840;4.386;2023-09-19T00:03:06;17.30;99.90
39675;DHT22;27790;50.840;4.386;2023-09-19T00:05:34;17.20;99.90
39675;DHT22;27790;50.840;4.386;2023-09-19T00:08:01;17.20;99.90
39675;DHT22;27790;50.840;4.386;2023-09-19T00:10:28;17.20;99.90
39675;DHT22;27790;50.840;4.386;2023-09-19T00:12:59;17.20;99.90
39675;DHT22;27790;50.840;4.386;2023-09-19T00:15:26;17.20;99.90
39675;DHT22;27790;50.840;4.386;2023-09-19T00:17:56;17.20;99.90
39675;DHT22;27790;50.840;4.386;2023-09-19T00:20:22;17.20;99.90
39675;DHT22;27790;50.840;4.386;2023-09-19T00:22:49;17.20;99.90
39675;DHT22;27790;50.840;4.386;2023-09-19T00:25:19;17.20;99.90
39675;DHT22;27790;50.840;4.386;2023-09-19T00:27:46;17.20;99.90
39675;DHT22;27790;50.840;4.386;2023-09-19T00:30:15;17.20;99.90
39675;DHT22;27790;50.840;4.386;2023-09-19T00:32:47;17.20;99.90
39675;DHT22;27790;50.840;4.386;2023-09-19T00:35:16;17.20;99.90
39675;DHT22;27790;50.840;4.386;2023-09-19T00:37:42;17.20;99.90
39675;DHT22;27790;50.840;4.386;2023-09-19T00:40:09;17.20;99.90
39675;DHT22;27790;50.840;4.386;2023-09-19T00:42:39;17.10;99.90
39675;DHT22;27790;50.840;4.386;2023-09-19T00:45:10;17.10;99.90
39675;DHT22;27790;50.840;4.386;2023-09-19T00:47:49;17.10;99.90
39675;DHT22;27790;50.840;4.386;2023-09-19T00:50:19;17.10;99.90
39675;DHT22;27790;50.840;4.386;2023-09-19T00:52:48;17.10;99.90
39675;DHT22;27790;50.840;4.386;2023-09-19T00:55:15;17.10;99.90
39675;DHT22;27790;50.840;4.386;2023-09-19T00:57:42;17.10;99.90
39675;DHT22;27790;50.840;4.386;2023-09-19T01:00:09;17.10;99.90
39675;DHT22;27790;50.840;4.386;2023-09-19T01:02:44;17.10;99.90
39675;DHT22;27790;50.840;4.386;2023-09-19T01:05:10;17.10;99.90
39675;DHT22;27790;50.840;4.386;2023-09-19T01:07:36;17.10;99.90
39675;DHT22;27790;50.840;4.386;2023-09-19T01:10:06;17.10;99.90
39675;DHT22;27790;50.840;4.386;2023-09-19T01:21:15;17.00;99.90
39675;DHT22;27790;50.840;4.386;2023-09-19T01:26:35;17.00;99.90
39675;DHT22;27790;50.840;4.386;2023-09-19T01:29:26;16.90;99.90
39675;DHT22;27790;50.840;4.386;2023-09-19T01:32:01;16.90;99.70
39675;DHT22;27790;50.840;4.386;2023-09-19T01:34:44;16.90;99.90
39675;DHT22;27790;50.840;4.386;2023-09-19T01:37:11;16.90;99.90
39675;DHT22;27790;50.840;4.386;2023-09-19T01:39:36;16.90;99.80
39675;DHT22;27790;50.840;4.386;2023-09-19T01:48:19;16.90;99.80
39675;DHT22;27790;50.840;4.386;2023-09-19T01:51:02;17.00;99.90
39675;DHT22;27790;50.840;4.386;2023-09-19T01:53:45;16.90;99.80
39675;DHT22;27790;50.840;4.386;2023-09-19T01:56:25;16.90;99.60
39675;DHT22;27790;50.840;4.386;2023-09-19T01:58:56;16.90;99.50
39675;DHT22;27790;50.840;4.386;2023-09-19T02:01:26;16.90;99.50
39675;DHT22;27790;50.840;4.386;2023-09-19T02:03:52;16.90;99.40
39675;DHT22;27790;50.840;4.386;2023-09-19T02:06:19;16.90;99.20
39675;DHT22;27790;50.840;4.386;2023-09-19T02:08:45;16.90;99.20
39675;DHT22;27790;50.840;4.386;2023-09-19T02:11:11;16.90;99.20
39675;DHT22;27790;50.840;4.386;2023-09-19T02:13:38;16.80;99.20
39675;DHT22;27790;50.840;4.386;2023-09-19T02:16:04;16.90;98.80
39675;DHT22;27790;50.840;4.386;2023-09-19T02:18:30;16.90;98.70
39675;DHT22;27790;50.840;4.386;2023-09-19T02:20:56;17.00;98.30
39675;DHT22;27790;50.840;4.386;2023-09-19T02:23:24;17.10;98.20
39675;DHT22;27790;50.840;4.386;2023-09-19T02:25:54;17.20;98.00
39675;DHT22;27790;50.840;4.386;2023-09-19T02:28:20;17.20;98.10
39675;DHT22;27790;50.840;4.386;2023-09-19T02:30:48;17.20;98.10
39675;DHT22;27790;50.840;4.386;2023-09-19T02:33:15;17.20;97.90
39675;DHT22;27790;50.840;4.386;2023-09-19T02:35:41;17.30;98.00
39675;DHT22;27790;50.840;4.386;2023-09-19T02:38:06;17.30;97.60
39675;DHT22;27790;50.840;4.386;2023-09-19T02:40:37;17.30;97.50
39675;DHT22;27790;50.840;4.386;2023-09-19T02:43:03;17.30;97.60
39675;DHT22;27790;50.840;4.386;2023-09-19T02:45:28;17.20;97.60
39675;DHT22;27790;50.840;4.386;2023-09-19T02:47:55;17.20;97.90
39675;DHT22;27790;50.840;4.386;2023-09-19T02:50:21;17.20;97.40
39675;DHT22;27790;50.840;4.386;2023-09-19T02:52:47;17.20;97.90
39675;DHT22;27790;50.840;4.386;2023-09-19T02:55:17;17.10;97.90
39675;DHT22;27790;50.840;4.386;2023-09-19T02:57:54;17.10;97.90
39675;DHT22;27790;50.840;4.386;2023-09-19T03:00:22;17.10;98.40
39675;DHT22;27790;50.840;4.386;2023-09-19T03:02:54;17.10;98.30
39675;DHT22;27790;50.840;4.386;2023-09-19T03:05:20;17.10;98.10
39675;DHT22;27790;50.840;4.386;2023-09-19T03:07:49;17.10;97.80
39675;DHT22;27790;50.840;4.386;2023-09-19T03:10:19;17.10;98.20
39675;DHT22;27790;50.840;4.386;2023-09-19T03:12:46;17.10;98.60
39675;DHT22;27790;50.840;4.386;2023-09-19T03:15:12;17.20;98.30
39675;DHT22;27790;50.840;4.386;2023-09-19T03:17:38;17.20;98.20
39675;DHT22;27790;50.840;4.386;2023-09-19T03:20:08;17.30;98.10
39675;DHT22;27790;50.840;4.386;2023-09-19T03:22:35;17.30;98.10
39675;DHT22;27790;50.840;4.386;2023-09-19T03:25:00;17.30;98.30
39675;DHT22;27790;50.840;4.386;2023-09-19T03:27:26;17.30;98.40
39675;DHT22;27790;50.840;4.386;2023-09-19T03:29:52;17.20;98.60
39675;DHT22;27790;50.840;4.386;2023-09-19T03:32:19;17.10;99.10
39675;DHT22;27790;50.840;4.386;2023-09-19T03:34:44;17.10;99.10
39675;DHT22;27790;50.840;4.386;2023-09-19T03:37:10;17.10;99.10
39675;DHT22;27790;50.840;4.386;2023-09-19T03:39:36;17.00;98.90
39675;DHT22;27790;50.840;4.386;2023-09-19T03:42:02;17.00;99.20
39675;DHT22;27790;50.840;4.386;2023-09-19T03:44:32;17.00;99.30
39675;DHT22;27790;50.840;4.386;2023-09-19T03:46:58;16.90;99.30
39675;DHT22;27790;50.840;4.386;2023-09-19T03:49:23;16.80;99.40
39675;DHT22;27790;50.840;4.386;2023-09-19T03:51:49;16.80;99.40
39675;DHT22;27790;50.840;4.386;2023-09-19T03:54:15;16.70;99.30
39675;DHT22;27790;50.840;4.386;2023-09-19T03:56:42;16.60;99.50
39675;DHT22;27790;50.840;4.386;2023-09-19T03:59:09;16.60;99.60
39675;DHT22;27790;50.840;4.386;2023-09-19T04:01:35;16.50;99.80
39675;DHT22;27790;50.840;4.386;2023-09-19T04:04:00;16.50;99.90
39675;DHT22;27790;50.840;4.386;2023-09-19T04:06:34;16.50;99.80
39675;DHT22;27790;50.840;4.386;2023-09-19T04:09:01;16.50;99.90
39675;DHT22;27790;50.840;4.386;2023-09-19T04:11:27;16.50;99.90
39675;DHT22;27790;50.840;4.386;2023-09-19T04:13:52;16.50;99.90
39675;DHT22;27790;50.840;4.386;2023-09-19T04:16:19;16.40;99.90
39675;DHT22;27790;50.840;4.386;2023-09-19T04:18:45;16.30;99.90
39675;DHT22;27790;50.840;4.386;2023-09-19T04:21:10;16.30;99.90
39675;DHT22;27790;50.840;4.386;2023-09-19T04:23:36;16.30;99.90
39675;DHT22;27790;50.840;4.386;2023-09-19T04:26:01;16.30;99.90
39675;DHT22;27790;50.840;4.386;2023-09-19T04:28:29;16.30;99.90
39675;DHT22;27790;50.840;4.386;2023-09-19T04:30:55;16.30;99.90
39675;DHT22;27790;50.840;4.386;2023-09-19T04:33:20;16.30;99.90
39675;DHT22;27790;50.840;4.386;2023-09-19T04:35:49;16.30;99.90
39675;DHT22;27790;50.840;4.386;2023-09-19T04:38:16;16.40;99.90
39675;DHT22;27790;50.840;4.386;2023-09-19T04:40:42;16.40;99.90
39675;DHT22;27790;50.840;4.386;2023-09-19T04:43:07;16.30;99.90
39675;DHT22;27790;50.840;4.386;2023-09-19T04:45:33;16.30;99.90
39675;DHT22;27790;50.840;4.386;2023-09-19T04:47:58;16.30;99.90
39675;DHT22;27790;50.840;4.386;2023-09-19T04:50:24;16.30;99.90
39675;DHT22;27790;50.840;4.386;2023-09-19T04:52:53;16.20;99.90
39675;DHT22;27790;50.840;4.386;2023-09-19T04:55:19;16.20;99.90
39675;DHT22;27790;50.840;4.386;2023-09-19T04:57:49;16.20;99.90
39675;DHT22;27790;50.840;4.386;2023-09-19T05:00:16;16.20;99.90
39675;DHT22;27790;50.840;4.386;2023-09-19T05:02:45;16.20;99.90
39675;DHT22;27790;50.840;4.386;2023-09-19T05:05:11;16.20;99.90
39675;DHT22;27790;50.840;4.386;2023-09-19T05:07:39;16.20;99.90
39675;DHT22;27790;50.840;4.386;2023-09-19T05:10:05;16.20;99.90
39675;DHT22;27790;50.840;4.386;2023-09-19T05:12:35;16.10;99.90
39675;DHT22;27790;50.840;4.386;2023-09-19T05:15:05;16.10;99.90
39675;DHT22;27790;50.840;4.386;2023-09-19T05:17:32;16.10;99.90
39675;DHT22;27790;50.840;4.386;2023-09-19T05:19:58;16.20;99.90
39675;DHT22;27790;50.840;4.386;2023-09-19T05:22:26;16.20;99.90
39675;DHT22;27790;50.840;4.386;2023-09-19T05:24:52;16.20;99.90
39675;DHT22;27790;50.840;4.386;2023-09-19T05:27:18;16.20;99.90
39675;DHT22;27790;50.840;4.386;2023-09-19T05:29:46;16.20;99.90
39675;DHT22;27790;50.840;4.386;2023-09-19T05:32:12;16.10;99.90
39675;DHT22;27790;50.840;4.386;2023-09-19T05:34:38;16.20;99.90
39675;DHT22;27790;50.840;4.386;2023-09-19T05:37:04;16.20;99.90
39675;DHT22;27790;50.840;4.386;2023-09-19T05:39:33;16.20;99.90
39675;DHT22;27790;50.840;4.386;2023-09-19T05:41:59;16.20;99.90
39675;DHT22;27790;50.840;4.386;2023-09-19T05:44:26;16.20;99.90
39675;DHT22;27790;50.840;4.386;2023-09-19T05:46:51;16.30;99.90
39675;DHT22;27790;50.840;4.386;2023-09-19T05:49:17;16.40;99.90
39675;DHT22;27790;50.840;4.386;2023-09-19T05:51:43;16.40;99.90
39675;DHT22;27790;50.840;4.386;2023-09-19T05:54:09;16.40;99.90
39675;DHT22;27790;50.840;4.386;2023-09-19T05:56:36;16.40;99.90
39675;DHT22;27790;50.840;4.386;2023-09-19T05:59:02;16.40;99.90
39675;DHT22;27790;50.840;4.386;2023-09-19T06:01:29;16.40;99.90
39675;DHT22;27790;50.840;4.386;2023-09-19T06:03:56;16.40;99.90
39675;DHT22;27790;50.840;4.386;2023-09-19T06:06:22;16.40;99.90
39675;DHT22;27790;50.840;4.386;2023-09-19T06:08:49;16.40;99.90
39675;DHT22;27790;50.840;4.386;2023-09-19T06:11:16;16.40;99.90
39675;DHT22;27790;50.840;4.386;2023-09-19T06:13:41;16.50;99.90
39675;DHT22;27790;50.840;4.386;2023-09-19T06:16:07;16.60;99.90
39675;DHT22;27790;50.840;4.386;2023-09-19T06:18:32;16.70;99.90
39675;DHT22;27790;50.840;4.386;2023-09-19T06:21:01;16.80;99.90
39675;DHT22;27790;50.840;4.386;2023-09-19T06:23:33;16.90;99.90
39675;DHT22;27790;50.840;4.386;2023-09-19T06:25:59;16.90;99.90
39675;DHT22;27790;50.840;4.386;2023-09-19T06:28:25;16.90;99.90
39675;DHT22;27790;50.840;4.386;2023-09-19T06:30:56;16.90;99.90
39675;DHT22;27790;50.840;4.386;2023-09-19T06:33:22;16.90;99.90
39675;DHT22;27790;50.840;4.386;2023-09-19T06:35:48;16.90;99.90
39675;DHT22;27790;50.840;4.386;2023-09-19T06:38:14;17.00;99.90
39675;DHT22;27790;50.840;4.386;2023-09-19T06:40:41;17.10;99.90
39675;DHT22;27790;50.840;4.386;2023-09-19T06:43:12;17.20;99.90
39675;DHT22;27790;50.840;4.386;2023-09-19T06:45:37;17.20;99.90
39675;DHT22;27790;50.840;4.386;2023-09-19T06:48:03;17.30;99.80
39675;DHT22;27790;50.840;4.386;2023-09-19T06:50:30;17.30;99.50
39675;DHT22;27790;50.840;4.386;2023-09-19T06:52:58;17.40;99.70
39675;DHT22;27790;50.840;4.386;2023-09-19T06:55:25;17.40;99.70
39675;DHT22;27790;50.840;4.386;2023-09-19T06:57:53;17.50;99.50
39675;DHT22;27790;50.840;4.386;2023-09-19T07:00:22;17.60;99.30
39675;DHT22;27790;50.840;4.386;2023-09-19T07:02:57;17.60;99.20
39675;DHT22;27790;50.840;4.386;2023-09-19T07:05:25;17.70;99.20
39675;DHT22;27790;50.840;4.386;2023-09-19T07:10:18;17.70;99.10
39675;DHT22;27790;50.840;4.386;2023-09-19T07:12:45;17.70;99.20
39675;DHT22;27790;50.840;4.386;2023-09-19T07:15:11;17.80;99.00
39675;DHT22;27790;50.840;4.386;2023-09-19T07:17:36;17.90;98.70
39675;DHT22;27790;50.840;4.386;2023-09-19T07:20:02;18.10;98.70
39675;DHT22;27790;50.840;4.386;2023-09-19T07:22:33;18.30;98.40
39675;DHT22;27790;50.840;4.386;2023-09-19T07:24:58;18.60;97.90
39675;DHT22;27790;50.840;4.386;2023-09-19T07:27:24;19.00;97.70
39675;DHT22;27790;50.840;4.386;2023-09-19T07:29:50;19.40;97.40
39675;DHT22;27790;50.840;4.386;2023-09-19T07:32:16;19.70;96.50
39675;DHT22;27790;50.840;4.386;2023-09-19T07:34:42;19.90;96.00
39675;DHT22;27790;50.840;4.386;2023-09-19T07:37:10;20.10;95.80
39675;DHT22;27790;50.840;4.386;2023-09-19T07:39:36;20.20;95.50
39675;DHT22;27790;50.840;4.386;2023-09-19T07:42:02;20.30;95.60
39675;DHT22;27790;50.840;4.386;2023-09-19T07:44:28;20.20;95.20
39675;DHT22;27790;50.840;4.386;2023-09-19T07:46:53;20.30;95.30
39675;DHT22;27790;50.840;4.386;2023-09-19T07:49:20;20.60;94.80
39675;DHT22;27790;50.840;4.386;2023-09-19T07:51:45;20.80;94.70
39675;DHT22;27790;50.840;4.386;2023-09-19T07:54:12;21.00;94.60
39675;DHT22;27790;50.840;4.386;2023-09-19T07:56:38;21.10;94.10
39675;DHT22;27790;50.840;4.386;2023-09-19T07:59:03;21.20;94.10
39675;DHT22;27790;50.840;4.386;2023-09-19T08:01:29;21.40;93.80
39675;DHT22;27790;50.840;4.386;2023-09-19T08:03:55;21.70;93.40
39675;DHT22;27790;50.840;4.386;2023-09-19T08:06:20;21.80;93.40
39675;DHT22;27790;50.840;4.386;2023-09-19T08:08:46;21.80;92.70
39675;DHT22;27790;50.840;4.386;2023-09-19T08:11:11;22.00;92.90
39675;DHT22;27790;50.840;4.386;2023-09-19T08:13:39;22.10;92.80
39675;DHT22;27790;50.840;4.386;2023-09-19T08:16:12;22.20;92.80
39675;DHT22;27790;50.840;4.386;2023-09-19T08:18:40;22.20;92.60
39675;DHT22;27790;50.840;4.386;2023-09-19T08:21:06;22.20;92.50
39675;DHT22;27790;50.840;4.386;2023-09-19T08:23:39;22.30;92.60
39675;DHT22;27790;50.840;4.386;2023-09-19T08:26:06;22.30;92.40
39675;DHT22;27790;50.840;4.386;2023-09-19T08:28:36;22.50;92.40
39675;DHT22;27790;50.840;4.386;2023-09-19T08:31:06;22.80;92.30
39675;DHT22;27790;50.840;4.386;2023-09-19T08:33:37;22.90;92.10
39675;DHT22;27790;50.840;4.386;2023-09-19T08:36:03;23.00;91.80
39675;DHT22;27790;50.840;4.386;2023-09-19T08:38:34;23.20;91.10
39675;DHT22;27790;50.840;4.386;2023-09-19T08:41:00;23.40;91.20
39675;DHT22;27790;50.840;4.386;2023-09-19T08:43:26;23.60;90.90
39675;DHT22;27790;50.840;4.386;2023-09-19T08:46:03;23.50;91.00
39675;DHT22;27790;50.840;4.386;2023-09-19T08:48:34;23.50;90.40
39675;DHT22;27790;50.840;4.386;2023-09-19T08:51:26;23.70;90.40
39675;DHT22;27790;50.840;4.386;2023-09-19T08:54:03;24.00;90.30
39675;DHT22;27790;50.840;4.386;2023-09-19T08:56:35;24.00;90.00
39675;DHT22;27790;50.840;4.386;2023-09-19T08:59:05;24.00;89.90
39675;DHT22;27790;50.840;4.386;2023-09-19T09:01:34;23.90;88.60
39675;DHT22;27790;50.840;4.386;2023-09-19T09:04:01;23.70;89.40
39675;DHT22;27790;50.840;4.386;2023-09-19T09:06:27;23.50;89.50
39675;DHT22;27790;50.840;4.386;2023-09-19T09:08:54;23.20;89.60
39675;DHT22;27790;50.840;4.386;2023-09-19T09:11:20;23.00;90.20
39675;DHT22;27790;50.840;4.386;2023-09-19T09:13:47;22.60;90.20
39675;DHT22;27790;50.840;4.386;2023-09-19T09:16:14;22.50;90.80
39675;DHT22;27790;50.840;4.386;2023-09-19T09:18:42;22.50;90.80
39675;DHT22;27790;50.840;4.386;2023-09-19T09:21:09;22.30;90.70
39675;DHT22;27790;50.840;4.386;2023-09-19T09:23:35;22.00;90.70
39675;DHT22;27790;50.840;4.386;2023-09-19T09:26:01;21.80;91.10
39675;DHT22;27790;50.840;4.386;2023-09-19T09:28:34;21.80;91.40
39675;DHT22;27790;50.840;4.386;2023-09-19T09:31:04;21.60;90.90
39675;DHT22;27790;50.840;4.386;2023-09-19T09:33:36;21.50;91.40
39675;DHT22;27790;50.840;4.386;2023-09-19T09:36:05;21.40;91.20
39675;DHT22;27790;50.840;4.386;2023-09-19T09:38:44;21.30;91.80
39675;DHT22;27790;50.840;4.386;2023-09-19T09:41:11;21.20;91.80
39675;DHT22;27790;50.840;4.386;2023-09-19T09:43:41;21.20;91.90
39675;DHT22;27790;50.840;4.386;2023-09-19T09:46:17;21.30;92.10
39675;DHT22;27790;50.840;4.386;2023-09-19T09:48:47;21.20;91.70
39675;DHT22;27790;50.840;4.386;2023-09-19T09:51:33;21.30;91.90
39675;DHT22;27790;50.840;4.386;2023-09-19T09:54:12;21.20;91.60
39675;DHT22;27790;50.840;4.386;2023-09-19T09:56:57;21.20;91.60
39675;DHT22;27790;50.840;4.386;2023-09-19T09:59:44;21.20;91.40
39675;DHT22;27790;50.840;4.386;2023-09-19T10:02:36;21.00;91.50
39675;DHT22;27790;50.840;4.386;2023-09-19T10:05:19;20.90;91.70
39675;DHT22;27790;50.840;4.386;2023-09-19T10:07:49;20.80;92.10
39675;DHT22;27790;50.840;4.386;2023-09-19T10:10:33;20.80;92.00
39675;DHT22;27790;50.840;4.386;2023-09-19T10:13:09;20.70;92.00
39675;DHT22;27790;50.840;4.386;2023-09-19T10:15:42;20.70;92.30
39675;DHT22;27790;50.840;4.386;2023-09-19T10:18:21;20.60;92.30
39675;DHT22;27790;50.840;4.386;2023-09-19T10:20:47;20.70;92.40
39675;DHT22;27790;50.840;4.386;2023-09-19T10:23:17;20.70;92.70
39675;DHT22;27790;50.840;4.386;2023-09-19T10:25:48;20.70;92.50
39675;DHT22;27790;50.840;4.386;2023-09-19T10:28:16;20.80;92.40
39675;DHT22;27790;50.840;4.386;2023-09-19T10:30:46;20.80;92.60
39675;DHT22;27790;50.840;4.386;2023-09-19T10:33:36;20.90;92.20
39675;DHT22;27790;50.840;4.386;2023-09-19T10:36:05;20.90;92.60
39675;DHT22;27790;50.840;4.386;2023-09-19T10:38:33;20.90;92.30
39675;DHT22;27790;50.840;4.386;2023-09-19T10:41:01;21.00;92.60
39675;DHT22;27790;50.840;4.386;2023-09-19T10:43:32;21.00;92.70
39675;DHT22;27790;50.840;4.386;2023-09-19T10:46:03;21.10;92.50
39675;DHT22;27790;50.840;4.386;2023-09-19T10:48:31;21.10;92.70
39675;DHT22;27790;50.840;4.386;2023-09-19T10:51:14;21.10;92.10
39675;DHT22;27790;50.840;4.386;2023-09-19T10:54:05;21.10;92.30
39675;DHT22;27790;50.840;4.386;2023-09-19T10:56:35;21.20;92.20
39675;DHT22;27790;50.840;4.386;2023-09-19T10:59:16;21.20;92.10
39675;DHT22;27790;50.840;4.386;2023-09-19T11:01:53;21.10;92.40
39675;DHT22;27790;50.840;4.386;2023-09-19T11:04:31;21.20;92.30
39675;DHT22;27790;50.840;4.386;2023-09-19T11:07:11;21.30;92.60
39675;DHT22;27790;50.840;4.386;2023-09-19T11:09:54;21.30;92.80
39675;DHT22;27790;50.840;4.386;2023-09-19T11:15:03;21.60;92.50
39675;DHT22;27790;50.840;4.386;2023-09-19T11:17:33;21.70;92.80
39675;DHT22;27790;50.840;4.386;2023-09-19T11:30:42;21.90;91.80
39675;DHT22;27790;50.840;4.386;2023-09-19T11:33:30;22.10;91.30
39675;DHT22;27790;50.840;4.386;2023-09-19T11:36:06;22.30;91.60
39675;DHT22;27790;50.840;4.386;2023-09-19T11:46:32;22.30;90.90
39675;DHT22;27790;50.840;4.386;2023-09-19T11:49:08;22.30;90.90
39675;DHT22;27790;50.840;4.386;2023-09-19T11:51:44;22.50;91.50
39675;DHT22;27790;50.840;4.386;2023-09-19T11:54:11;22.50;91.00
39675;DHT22;27790;50.840;4.386;2023-09-19T11:56:51;22.40;91.30
39675;DHT22;27790;50.840;4.386;2023-09-19T11:59:27;22.40;91.70
39675;DHT22;27790;50.840;4.386;2023-09-19T12:02:04;22.20;91.40
39675;DHT22;27790;50.840;4.386;2023-09-19T12:04:41;22.20;91.30
39675;DHT22;27790;50.840;4.386;2023-09-19T12:07:12;22.30;91.30
39675;DHT22;27790;50.840;4.386;2023-09-19T12:09:43;22.30;91.20
39675;DHT22;27790;50.840;4.386;2023-09-19T12:12:19;22.40;91.40
39675;DHT22;27790;50.840;4.386;2023-09-19T12:14:52;22.40;91.30
39675;DHT22;27790;50.840;4.386;2023-09-19T12:17:18;22.30;91.00
39675;DHT22;27790;50.840;4.386;2023-09-19T12:19:55;22.40;91.10
39675;DHT22;27790;50.840;4.386;2023-09-19T12:22:20;22.30;91.30
39675;DHT22;27790;50.840;4.386;2023-09-19T12:24:46;22.20;91.40
39675;DHT22;27790;50.840;4.386;2023-09-19T12:27:12;22.10;91.40
39675;DHT22;27790;50.840;4.386;2023-09-19T12:29:46;22.20;91.60
39675;DHT22;27790;50.840;4.386;2023-09-19T12:32:14;22.20;91.70
39675;DHT22;27790;50.840;4.386;2023-09-19T12:34:42;22.20;91.50
39675;DHT22;27790;50.840;4.386;2023-09-19T12:37:15;22.20;91.60
39675;DHT22;27790;50.840;4.386;2023-09-19T12:39:46;22.20;91.10
39675;DHT22;27790;50.840;4.386;2023-09-19T12:42:15;22.00;91.60
39675;DHT22;27790;50.840;4.386;2023-09-19T12:44:46;21.90;91.40
39675;DHT22;27790;50.840;4.386;2023-09-19T12:47:16;22.00;92.20
39675;DHT22;27790;50.840;4.386;2023-09-19T12:50:14;22.30;92.30
39675;DHT22;27790;50.840;4.386;2023-09-19T12:52:47;22.40;91.20
39675;DHT22;27790;50.840;4.386;2023-09-19T12:55:27;22.50;91.40
39675;DHT22;27790;50.840;4.386;2023-09-19T13:00:41;22.60;91.20
39675;DHT22;27790;50.840;4.386;2023-09-19T13:03:14;22.60;91.00
39675;DHT22;27790;50.840;4.386;2023-09-19T13:05:59;22.60;91.50
39675;DHT22;27790;50.840;4.386;2023-09-19T13:11:16;22.70;90.80
39675;DHT22;27790;50.840;4.386;2023-09-19T13:16:29;22.70;90.50
39675;DHT22;27790;50.840;4.386;2023-09-19T13:18:55;22.70;90.70
39675;DHT22;27790;50.840;4.386;2023-09-19T13:21:31;22.70;91.40
39675;DHT22;27790;50.840;4.386;2023-09-19T13:24:24;22.60;91.20
39675;DHT22;27790;50.840;4.386;2023-09-19T13:26:54;22.70;91.30
39675;DHT22;27790;50.840;4.386;2023-09-19T13:29:20;22.80;91.40
39675;DHT22;27790;50.840;4.386;2023-09-19T13:31:50;22.80;91.00
39675;DHT22;27790;50.840;4.386;2023-09-19T13:34:16;22.90;90.70
39675;DHT22;27790;50.840;4.386;2023-09-19T13:36:43;23.00;90.70
39675;DHT22;27790;50.840;4.386;2023-09-19T13:39:09;23.00;90.40
39675;DHT22;27790;50.840;4.386;2023-09-19T13:41:35;23.10;90.70
39675;DHT22;27790;50.840;4.386;2023-09-19T13:44:04;23.00;90.70
39675;DHT22;27790;50.840;4.386;2023-09-19T13:46:30;23.10;90.80
39675;DHT22;27790;50.840;4.386;2023-09-19T13:48:59;23.10;91.00
39675;DHT22;27790;50.840;4.386;2023-09-19T13:51:26;23.10;90.70
39675;DHT22;27790;50.840;4.386;2023-09-19T13:53:51;23.10;91.30
39675;DHT22;27790;50.840;4.386;2023-09-19T13:56:17;23.10;91.20
39675;DHT22;27790;50.840;4.386;2023-09-19T13:58:43;23.00;90.40
39675;DHT22;27790;50.840;4.386;2023-09-19T14:01:08;22.80;91.20
39675;DHT22;27790;50.840;4.386;2023-09-19T14:03:41;22.70;91.00
39675;DHT22;27790;50.840;4.386;2023-09-19T14:06:18;22.60;91.30
39675;DHT22;27790;50.840;4.386;2023-09-19T14:08:44;22.40;91.40
39675;DHT22;27790;50.840;4.386;2023-09-19T14:11:13;22.40;91.40
39675;DHT22;27790;50.840;4.386;2023-09-19T14:13:42;22.40;91.50
39675;DHT22;27790;50.840;4.386;2023-09-19T14:16:12;22.50;91.40
39675;DHT22;27790;50.840;4.386;2023-09-19T14:18:38;22.30;91.30
39675;DHT22;27790;50.840;4.386;2023-09-19T14:21:04;22.30;91.20
39675;DHT22;27790;50.840;4.386;2023-09-19T14:23:37;22.30;91.40
39675;DHT22;27790;50.840;4.386;2023-09-19T14:26:03;22.30;91.30
39675;DHT22;27790;50.840;4.386;2023-09-19T14:28:31;22.30;91.60
39675;DHT22;27790;50.840;4.386;2023-09-19T14:30:57;22.30;91.30
39675;DHT22;27790;50.840;4.386;2023-09-19T14:33:24;22.40;91.40
39675;DHT22;27790;50.840;4.386;2023-09-19T14:35:49;22.40;91.60
39675;DHT22;27790;50.840;4.386;2023-09-19T14:38:15;22.50;91.40
39675;DHT22;27790;50.840;4.386;2023-09-19T14:40:41;22.60;91.80
39675;DHT22;27790;50.840;4.386;2023-09-19T14:43:08;22.50;91.40
39675;DHT22;27790;50.840;4.386;2023-09-19T14:45:35;22.40;91.40
39675;DHT22;27790;50.840;4.386;2023-09-19T14:48:01;22.30;91.40
39675;DHT22;27790;50.840;4.386;2023-09-19T14:50:30;22.20;91.50
39675;DHT22;27790;50.840;4.386;2023-09-19T14:52:56;22.30;91.30
39675;DHT22;27790;50.840;4.386;2023-09-19T14:55:22;22.40;91.60
39675;DHT22;27790;50.840;4.386;2023-09-19T14:57:51;22.20;91.60
39675;DHT22;27790;50.840;4.386;2023-09-19T15:00:18;22.10;92.20
39675;DHT22;27790;50.840;4.386;2023-09-19T15:02:46;22.00;91.90
39675;DHT22;27790;50.840;4.386;2023-09-19T15:05:13;21.90;92.60
39675;DHT22;27790;50.840;4.386;2023-09-19T15:07:40;22.00;92.40
39675;DHT22;27790;50.840;4.386;2023-09-19T15:10:06;22.10;92.00
39675;DHT22;27790;50.840;4.386;2023-09-19T15:12:36;22.30;92.30
39675;DHT22;27790;50.840;4.386;2023-09-19T15:15:06;22.40;91.70
39675;DHT22;27790;50.840;4.386;2023-09-19T15:17:35;22.50;91.50
39675;DHT22;27790;50.840;4.386;2023-09-19T15:20:01;22.40;91.60
39675;DHT22;27790;50.840;4.386;2023-09-19T15:22:27;22.30;91.60
39675;DHT22;27790;50.840;4.386;2023-09-19T15:24:53;22.10;91.70
39675;DHT22;27790;50.840;4.386;2023-09-19T15:27:18;22.00;91.90
39675;DHT22;27790;50.840;4.386;2023-09-19T15:29:46;22.00;92.10
39675;DHT22;27790;50.840;4.386;2023-09-19T15:32:11;21.90;92.10
39675;DHT22;27790;50.840;4.386;2023-09-19T15:34:37;21.90;92.20
39675;DHT22;27790;50.840;4.386;2023-09-19T15:37:03;21.70;92.20
39675;DHT22;27790;50.840;4.386;2023-09-19T15:39:31;21.60;92.30
39675;DHT22;27790;50.840;4.386;2023-09-19T15:42:00;21.50;92.40
39675;DHT22;27790;50.840;4.386;2023-09-19T15:44:25;21.50;92.70
39675;DHT22;27790;50.840;4.386;2023-09-19T15:46:54;21.40;93.00
39675;DHT22;27790;50.840;4.386;2023-09-19T15:49:20;21.40;93.00
39675;DHT22;27790;50.840;4.386;2023-09-19T15:51:46;21.50;93.20
39675;DHT22;27790;50.840;4.386;2023-09-19T15:54:13;21.50;93.00
39675;DHT22;27790;50.840;4.386;2023-09-19T15:56:42;21.50;92.90
39675;DHT22;27790;50.840;4.386;2023-09-19T15:59:09;21.50;92.70
39675;DHT22;27790;50.840;4.386;2023-09-19T16:01:38;21.40;93.00
39675;DHT22;27790;50.840;4.386;2023-09-19T16:04:04;21.30;93.00
39675;DHT22;27790;50.840;4.386;2023-09-19T16:06:31;21.30;93.10
39675;DHT22;27790;50.840;4.386;2023-09-19T16:08:58;21.30;93.20
39675;DHT22;27790;50.840;4.386;2023-09-19T16:11:26;21.20;93.20
39675;DHT22;27790;50.840;4.386;2023-09-19T16:13:52;21.30;93.20
39675;DHT22;27790;50.840;4.386;2023-09-19T16:16:19;21.20;93.40
39675;DHT22;27790;50.840;4.386;2023-09-19T16:18:52;21.20;93.40
39675;DHT22;27790;50.840;4.386;2023-09-19T16:21:21;21.10;93.50
39675;DHT22;27790;50.840;4.386;2023-09-19T16:23:48;21.10;93.30
39675;DHT22;27790;50.840;4.386;2023-09-19T16:26:15;21.20;93.40
39675;DHT22;27790;50.840;4.386;2023-09-19T16:28:43;21.20;93.80
39675;DHT22;27790;50.840;4.386;2023-09-19T16:31:09;21.20;93.40